sensor_id;sensor_type;location;lat;lon;timestamp;temperature;humidity
14378;DHT22;7272;53.668;9.578;2022-08-19T00:00:59;21.10;99.90
14378;DHT22;7272;53.668;9.578;2022-08-19T00:04:05;21.10;99.90
14378;DHT22;7272;53.668;9.578;2022-08-19T00:07:08;21.10;99.90
14378;DHT22;7272;53.668;9.578;2022-08-19T00:10:12;21.00;99.90
14378;DHT22;7272;53.668;9.578;2022-08-19T00:13:14;21.00;99.90
14378;DHT22;7272;53.668;9.578;2022-08-19T00:16:17;21.10;99.90
14378;DHT22;7272;53.668;9.578;2022-08-19T00:19:22;21.10;99.90
14378;DHT22;7272;53.668;9.578;2022-08-19T00:22:24;20.90;99.90
14378;DHT22;7272;53.668;9.578;2022-08-19T00:25:27;21.00;99.90
14378;DHT22;7272;53.668;9.578;2022-08-19T00:28:29;21.00;99.90
14378;DHT22;7272;53.668;9.578;2022-08-19T00:31:32;20.90;99.90
14378;DHT22;7272;53.668;9.578;2022-08-19T00:34:36;21.00;99.90
14378;DHT22;7272;53.668;9.578;2022-08-19T00:37:38;20.90;99.90
14378;DHT22;7272;53.668;9.578;2022-08-19T00:40:43;21.00;99.90
14378;DHT22;7272;53.668;9.578;2022-08-19T00:43:58;20.90;99.90
14378;DHT22;7272;53.668;9.578;2022-08-19T00:47:00;20.80;99.90
14378;DHT22;7272;53.668;9.578;2022-08-19T00:50:05;20.80;99.90
14378;DHT22;7272;53.668;9.578;2022-08-19T00:53:10;20.70;99.90
14378;DHT22;7272;53.668;9.578;2022-08-19T00:56:12;20.70;99.90
14378;DHT22;7272;53.668;9.578;2022-08-19T00:59:16;20.70;99.90
14378;DHT22;7272;53.668;9.578;2022-08-19T01:02:19;20.60;99.90
14378;DHT22;7272;53.668;9.578;2022-08-19T01:05:25;20.60;99.90
14378;DHT22;7272;53.668;9.578;2022-08-19T01:08:29;20.60;99.90
14378;DHT22;7272;53.668;9.578;2022-08-19T01:11:34;20.60;99.90
14378;DHT22;7272;53.668;9.578;2022-08-19T01:14:39;20.50;99.90
14378;DHT22;7272;53.668;9.578;2022-08-19T01:17:42;20.70;99.90
14378;DHT22;7272;53.668;9.578;2022-08-19T01:20:46;20.60;99.90
14378;DHT22;7272;53.668;9.578;2022-08-19T01:23:50;20.60;99.90
14378;DHT22;7272;53.668;9.578;2022-08-19T01:26:52;20.50;99.90
14378;DHT22;7272;53.668;9.578;2022-08-19T01:29:55;20.50;99.90
14378;DHT22;7272;53.668;9.578;2022-08-19T01:32:57;20.70;99.90
14378;DHT22;7272;53.668;9.578;2022-08-19T01:36:08;20.80;99.90
14378;DHT22;7272;53.668;9.578;2022-08-19T01:39:15;20.70;99.90
14378;DHT22;7272;53.668;9.578;2022-08-19T01:42:17;20.70;99.90
14378;DHT22;7272;53.668;9.578;2022-08-19T01:45:22;20.60;99.90
14378;DHT22;7272;53.668;9.578;2022-08-19T01:48:25;20.50;99.90
14378;DHT22;7272;53.668;9.578;2022-08-19T01:51:29;20.70;99.90
14378;DHT22;7272;53.668;9.578;2022-08-19T01:54:33;20.80;99.90
14378;DHT22;7272;53.668;9.578;2022-08-19T01:57:36;20.60;99.90
14378;DHT22;7272;53.668;9.578;2022-08-19T02:00:39;20.50;99.90
14378;DHT22;7272;53.668;9.578;2022-08-19T02:03:41;20.50;99.90
14378;DHT22;7272;53.668;9.578;2022-08-19T02:06:43;20.40;99.90
14378;DHT22;7272;53.668;9.578;2022-08-19T02:09:46;20.40;99.90
14378;DHT22;7272;53.668;9.578;2022-08-19T02:12:49;20.40;99.90
14378;DHT22;7272;53.668;9.578;2022-08-19T02:15:51;20.30;99.90
14378;DHT22;7272;53.668;9.578;2022-08-19T02:18:53;20.30;99.90
14378;DHT22;7272;53.668;9.578;2022-08-19T02:21:55;20.30;99.90
14378;DHT22;7272;53.668;9.578;2022-08-19T02:24:59;20.30;99.90
14378;DHT22;7272;53.668;9.578;2022-08-19T02:28:01;20.20;99.90
14378;DHT22;7272;53.668;9.578;2022-08-19T02:31:08;20.10;99.90
14378;DHT22;7272;53.668;9.578;2022-08-19T02:34:10;20.10;99.90
14378;DHT22;7272;53.668;9.578;2022-08-19T02:37:12;20.10;99.90
14378;DHT22;7272;53.668;9.578;2022-08-19T02:40:31;20.10;99.90
14378;DHT22;7272;53.668;9.578;2022-08-19T02:43:35;20.10;99.90
14378;DHT22;7272;53.668;9.578;2022-08-19T02:46:37;20.10;99.90
14378;DHT22;7272;53.668;9.578;2022-08-19T02:49:40;20.10;99.90
14378;DHT22;7272;53.668;9.578;2022-08-19T02:52:42;20.20;99.90
14378;DHT22;7272;53.668;9.578;2022-08-19T02:55:47;20.20;99.90
14378;DHT22;7272;53.668;9.578;2022-08-19T02:58:50;20.10;99.90
14378;DHT22;7272;53.668;9.578;2022-08-19T03:01:52;20.10;99.90
14378;DHT22;7272;53.668;9.578;2022-08-19T03:04:54;20.10;99.90
14378;DHT22;7272;53.668;9.578;2022-08-19T03:07:56;20.10;99.90
14378;DHT22;7272;53.668;9.578;2022-08-19T03:10:59;20.20;99.90
14378;DHT22;7272;53.668;9.578;2022-08-19T03:14:03;20.10;99.90
14378;DHT22;7272;53.668;9.578;2022-08-19T03:17:05;20.10;99.90
14378;DHT22;7272;53.668;9.578;2022-08-19T03:20:09;20.10;99.90
14378;DHT22;7272;53.668;9.578;2022-08-19T03:23:14;20.00;99.90
14378;DHT22;7272;53.668;9.578;2022-08-19T03:26:18;20.10;99.90
14378;DHT22;7272;53.668;9.578;2022-08-19T03:29:20;20.10;99.90
14378;DHT22;7272;53.668;9.578;2022-08-19T03:32:22;20.10;99.90
14378;DHT22;7272;53.668;9.578;2022-08-19T03:35:24;20.10;99.90
14378;DHT22;7272;53.668;9.578;2022-08-19T03:38:26;20.10;99.90
14378;DHT22;7272;53.668;9.578;2022-08-19T03:41:37;20.00;99.90
14378;DHT22;7272;53.668;9.578;2022-08-19T03:44:39;20.10;99.90
14378;DHT22;7272;53.668;9.578;2022-08-19T03:47:43;20.00;99.90
14378;DHT22;7272;53.668;9.578;2022-08-19T03:50:45;20.20;99.90
14378;DHT22;7272;53.668;9.578;2022-08-19T03:53:48;20.20;99.90
14378;DHT22;7272;53.668;9.578;2022-08-19T03:56:53;20.10;99.90
14378;DHT22;7272;53.668;9.578;2022-08-19T03:59:56;20.10;99.90
14378;DHT22;7272;53.668;9.578;2022-08-19T04:02:58;20.10;99.90
14378;DHT22;7272;53.668;9.578;2022-08-19T04:06:09;20.00;99.90
14378;DHT22;7272;53.668;9.578;2022-08-19T04:09:13;20.00;99.90
14378;DHT22;7272;53.668;9.578;2022-08-19T04:12:17;20.00;99.90
14378;DHT22;7272;53.668;9.578;2022-08-19T04:15:21;20.00;99.90
14378;DHT22;7272;53.668;9.578;2022-08-19T04:18:23;19.90;99.90
14378;DHT22;7272;53.668;9.578;2022-08-19T04:21:26;19.90;99.90
14378;DHT22;7272;53.668;9.578;2022-08-19T04:24:28;20.00;99.90
14378;DHT22;7272;53.668;9.578;2022-08-19T04:27:32;20.10;99.90
14378;DHT22;7272;53.668;9.578;2022-08-19T04:30:39;20.10;99.90
14378;DHT22;7272;53.668;9.578;2022-08-19T04:33:41;20.00;99.90
14378;DHT22;7272;53.668;9.578;2022-08-19T04:36:44;19.90;99.90
14378;DHT22;7272;53.668;9.578;2022-08-19T04:39:46;19.80;99.90
14378;DHT22;7272;53.668;9.578;2022-08-19T04:43:18;19.90;99.90
14378;DHT22;7272;53.668;9.578;2022-08-19T04:46:21;19.90;99.90
14378;DHT22;7272;53.668;9.578;2022-08-19T04:49:24;19.80;99.90
14378;DHT22;7272;53.668;9.578;2022-08-19T04:52:26;19.80;99.90
14378;DHT22;7272;53.668;9.578;2022-08-19T04:55:28;19.80;99.90
14378;DHT22;7272;53.668;9.578;2022-08-19T04:58:32;19.80;99.90
14378;DHT22;7272;53.668;9.578;2022-08-19T05:01:34;19.80;99.90
14378;DHT22;7272;53.668;9.578;2022-08-19T05:04:37;19.90;99.90
14378;DHT22;7272;53.668;9.578;2022-08-19T05:07:40;19.90;99.90
14378;DHT22;7272;53.668;9.578;2022-08-19T05:10:42;19.90;99.90
14378;DHT22;7272;53.668;9.578;2022-08-19T05:13:47;19.80;99.90
14378;DHT22;7272;53.668;9.578;2022-08-19T05:16:49;19.80;99.90
14378;DHT22;7272;53.668;9.578;2022-08-19T05:19:51;19.80;99.90
14378;DHT22;7272;53.668;9.578;2022-08-19T05:23:11;19.90;99.90
14378;DHT22;7272;53.668;9.578;2022-08-19T05:26:16;19.80;99.90
14378;DHT22;7272;53.668;9.578;2022-08-19T05:29:20;19.80;99.90
14378;DHT22;7272;53.668;9.578;2022-08-19T05:32:22;19.90;99.90
14378;DHT22;7272;53.668;9.578;2022-08-19T05:35:25;19.80;99.90
14378;DHT22;7272;53.668;9.578;2022-08-19T05:38:27;19.90;99.90
14378;DHT22;7272;53.668;9.578;2022-08-19T05:41:29;20.10;99.90
14378;DHT22;7272;53.668;9.578;2022-08-19T05:44:36;20.20;99.90
14378;DHT22;7272;53.668;9.578;2022-08-19T05:47:38;20.10;99.90
14378;DHT22;7272;53.668;9.578;2022-08-19T05:50:41;20.00;99.90
14378;DHT22;7272;53.668;9.578;2022-08-19T05:53:45;20.00;99.90
14378;DHT22;7272;53.668;9.578;2022-08-19T05:56:47;20.00;99.90
14378;DHT22;7272;53.668;9.578;2022-08-19T05:59:51;20.10;99.90
14378;DHT22;7272;53.668;9.578;2022-08-19T06:02:54;20.10;99.90
14378;DHT22;7272;53.668;9.578;2022-08-19T06:05:57;20.10;99.90
14378;DHT22;7272;53.668;9.578;2022-08-19T06:09:01;20.10;99.90
14378;DHT22;7272;53.668;9.578;2022-08-19T06:12:03;20.10;99.90
14378;DHT22;7272;53.668;9.578;2022-08-19T06:15:12;20.10;99.90
14378;DHT22;7272;53.668;9.578;2022-08-19T06:18:15;20.10;99.90
14378;DHT22;7272;53.668;9.578;2022-08-19T06:21:18;20.20;99.90
14378;DHT22;7272;53.668;9.578;2022-08-19T06:24:24;20.10;99.90
14378;DHT22;7272;53.668;9.578;2022-08-19T06:27:26;20.00;99.90
14378;DHT22;7272;53.668;9.578;2022-08-19T06:30:31;19.90;99.90
14378;DHT22;7272;53.668;9.578;2022-08-19T06:33:33;19.90;99.90
14378;DHT22;7272;53.668;9.578;2022-08-19T06:36:37;19.90;99.90
14378;DHT22;7272;53.668;9.578;2022-08-19T06:39:42;20.00;99.90
14378;DHT22;7272;53.668;9.578;2022-08-19T06:42:44;19.90;99.90
14378;DHT22;7272;53.668;9.578;2022-08-19T06:45:48;19.90;99.90
14378;DHT22;7272;53.668;9.578;2022-08-19T06:48:52;19.90;99.90
14378;DHT22;7272;53.668;9.578;2022-08-19T06:51:55;19.80;99.90
14378;DHT22;7272;53.668;9.578;2022-08-19T06:54:58;19.80;99.90
14378;DHT22;7272;53.668;9.578;2022-08-19T06:58:01;19.90;99.90
14378;DHT22;7272;53.668;9.578;2022-08-19T07:01:06;20.10;99.90
14378;DHT22;7272;53.668;9.578;2022-08-19T07:04:08;20.10;99.90
14378;DHT22;7272;53.668;9.578;2022-08-19T07:07:13;20.10;99.90
14378;DHT22;7272;53.668;9.578;2022-08-19T07:10:15;20.20;99.90
14378;DHT22;7272;53.668;9.578;2022-08-19T07:13:17;20.00;99.90
14378;DHT22;7272;53.668;9.578;2022-08-19T07:16:21;20.10;99.90
14378;DHT22;7272;53.668;9.578;2022-08-19T07:19:25;20.20;99.90
14378;DHT22;7272;53.668;9.578;2022-08-19T07:22:27;20.10;99.90
14378;DHT22;7272;53.668;9.578;2022-08-19T07:25:29;20.00;99.90
14378;DHT22;7272;53.668;9.578;2022-08-19T07:28:31;19.90;99.90
14378;DHT22;7272;53.668;9.578;2022-08-19T07:31:35;19.90;99.90
14378;DHT22;7272;53.668;9.578;2022-08-19T07:34:37;19.90;99.90
14378;DHT22;7272;53.668;9.578;2022-08-19T07:37:40;20.00;99.90
14378;DHT22;7272;53.668;9.578;2022-08-19T07:40:45;20.00;99.90
14378;DHT22;7272;53.668;9.578;2022-08-19T07:43:47;19.90;99.90
14378;DHT22;7272;53.668;9.578;2022-08-19T07:46:52;20.00;99.90
14378;DHT22;7272;53.668;9.578;2022-08-19T07:49:56;20.10;99.90
14378;DHT22;7272;53.668;9.578;2022-08-19T07:52:58;20.20;99.90
14378;DHT22;7272;53.668;9.578;2022-08-19T07:56:00;20.20;99.90
14378;DHT22;7272;53.668;9.578;2022-08-19T07:59:04;20.30;99.90
14378;DHT22;7272;53.668;9.578;2022-08-19T08:02:08;20.40;99.90
14378;DHT22;7272;53.668;9.578;2022-08-19T08:05:11;20.50;99.90
14378;DHT22;7272;53.668;9.578;2022-08-19T08:08:30;20.50;99.90
14378;DHT22;7272;53.668;9.578;2022-08-19T08:11:52;20.50;99.90
14378;DHT22;7272;53.668;9.578;2022-08-19T08:14:58;20.50;99.90
14378;DHT22;7272;53.668;9.578;2022-08-19T08:18:03;20.70;99.90
14378;DHT22;7272;53.668;9.578;2022-08-19T08:21:07;20.60;99.90
14378;DHT22;7272;53.668;9.578;2022-08-19T08:24:09;20.50;99.90
14378;DHT22;7272;53.668;9.578;2022-08-19T08:27:12;20.50;99.90
14378;DHT22;7272;53.668;9.578;2022-08-19T08:30:18;20.50;99.90
14378;DHT22;7272;53.668;9.578;2022-08-19T08:33:23;20.50;99.90
14378;DHT22;7272;53.668;9.578;2022-08-19T08:36:26;20.70;99.90
14378;DHT22;7272;53.668;9.578;2022-08-19T08:39:29;20.60;99.90
14378;DHT22;7272;53.668;9.578;2022-08-19T08:42:35;20.50;99.90
14378;DHT22;7272;53.668;9.578;2022-08-19T08:45:43;20.40;99.90
14378;DHT22;7272;53.668;9.578;2022-08-19T08:48:51;20.40;99.90
14378;DHT22;7272;53.668;9.578;2022-08-19T08:52:00;20.50;99.90
14378;DHT22;7272;53.668;9.578;2022-08-19T08:55:07;20.60;99.90
14378;DHT22;7272;53.668;9.578;2022-08-19T08:58:13;20.60;99.90
14378;DHT22;7272;53.668;9.578;2022-08-19T09:01:16;20.50;99.90
14378;DHT22;7272;53.668;9.578;2022-08-19T09:04:20;20.50;99.90
14378;DHT22;7272;53.668;9.578;2022-08-19T09:07:36;20.50;99.90
14378;DHT22;7272;53.668;9.578;2022-08-19T09:10:44;20.50;99.90
14378;DHT22;7272;53.668;9.578;2022-08-19T09:13:56;20.60;99.90
14378;DHT22;7272;53.668;9.578;2022-08-19T09:17:01;20.70;99.90
14378;DHT22;7272;53.668;9.578;2022-08-19T09:20:14;20.80;99.90
14378;DHT22;7272;53.668;9.578;2022-08-19T09:23:17;20.80;99.90
14378;DHT22;7272;53.668;9.578;2022-08-19T09:26:22;20.80;99.90
14378;DHT22;7272;53.668;9.578;2022-08-19T09:29:24;21.00;99.90
14378;DHT22;7272;53.668;9.578;2022-08-19T09:32:26;21.10;99.90
14378;DHT22;7272;53.668;9.578;2022-08-19T09:35:31;21.00;99.90
14378;DHT22;7272;53.668;9.578;2022-08-19T09:38:33;21.00;99.90
14378;DHT22;7272;53.668;9.578;2022-08-19T09:41:35;21.00;99.90
14378;DHT22;7272;53.668;9.578;2022-08-19T09:44:37;21.00;99.90
14378;DHT22;7272;53.668;9.578;2022-08-19T09:47:40;21.20;99.90
14378;DHT22;7272;53.668;9.578;2022-08-19T09:50:43;21.30;99.90
14378;DHT22;7272;53.668;9.578;2022-08-19T09:53:46;21.40;99.90
14378;DHT22;7272;53.668;9.578;2022-08-19T09:56:50;21.40;99.90
14378;DHT22;7272;53.668;9.578;2022-08-19T09:59:52;21.40;99.90
14378;DHT22;7272;53.668;9.578;2022-08-19T10:02:55;21.50;99.90
14378;DHT22;7272;53.668;9.578;2022-08-19T10:06:00;21.60;99.90
14378;DHT22;7272;53.668;9.578;2022-08-19T10:09:03;21.60;99.90
14378;DHT22;7272;53.668;9.578;2022-08-19T10:12:07;21.60;99.90
14378;DHT22;7272;53.668;9.578;2022-08-19T10:15:09;21.60;99.90
14378;DHT22;7272;53.668;9.578;2022-08-19T10:18:12;21.50;99.90
14378;DHT22;7272;53.668;9.578;2022-08-19T10:21:18;21.40;99.90
14378;DHT22;7272;53.668;9.578;2022-08-19T10:24:20;21.40;99.90
14378;DHT22;7272;53.668;9.578;2022-08-19T10:27:24;21.40;99.90
14378;DHT22;7272;53.668;9.578;2022-08-19T10:30:27;21.70;99.90
14378;DHT22;7272;53.668;9.578;2022-08-19T10:33:29;21.80;99.90
14378;DHT22;7272;53.668;9.578;2022-08-19T10:36:35;21.90;99.90
14378;DHT22;7272;53.668;9.578;2022-08-19T10:39:37;22.00;99.90
14378;DHT22;7272;53.668;9.578;2022-08-19T10:42:39;22.10;99.90
14378;DHT22;7272;53.668;9.578;2022-08-19T10:45:41;22.20;99.90
14378;DHT22;7272;53.668;9.578;2022-08-19T10:48:44;22.50;99.90
14378;DHT22;7272;53.668;9.578;2022-08-19T10:51:47;22.60;99.90
14378;DHT22;7272;53.668;9.578;2022-08-19T10:55:07;22.60;99.90
14378;DHT22;7272;53.668;9.578;2022-08-19T10:58:27;22.70;99.90
14378;DHT22;7272;53.668;9.578;2022-08-19T11:01:30;22.70;99.90
14378;DHT22;7272;53.668;9.578;2022-08-19T11:04:33;22.80;99.90
14378;DHT22;7272;53.668;9.578;2022-08-19T11:07:37;22.80;99.90
14378;DHT22;7272;53.668;9.578;2022-08-19T11:10:41;22.70;99.90
14378;DHT22;7272;53.668;9.578;2022-08-19T11:13:43;22.70;99.90
14378;DHT22;7272;53.668;9.578;2022-08-19T11:16:48;22.60;99.90
14378;DHT22;7272;53.668;9.578;2022-08-19T11:19:50;22.60;99.90
14378;DHT22;7272;53.668;9.578;2022-08-19T11:22:53;22.70;99.90
14378;DHT22;7272;53.668;9.578;2022-08-19T11:25:55;22.80;99.90
14378;DHT22;7272;53.668;9.578;2022-08-19T11:29:00;22.90;99.90
14378;DHT22;7272;53.668;9.578;2022-08-19T11:32:05;22.90;99.90
14378;DHT22;7272;53.668;9.578;2022-08-19T11:35:08;23.00;99.90
14378;DHT22;7272;53.668;9.578;2022-08-19T11:38:13;23.10;99.90
14378;DHT22;7272;53.668;9.578;2022-08-19T11:41:16;23.20;99.90
14378;DHT22;7272;53.668;9.578;2022-08-19T11:44:19;23.30;99.90
14378;DHT22;7272;53.668;9.578;2022-08-19T11:47:21;23.20;99.90
14378;DHT22;7272;53.668;9.578;2022-08-19T11:50:23;23.20;99.90
14378;DHT22;7272;53.668;9.578;2022-08-19T11:53:26;23.20;99.90
14378;DHT22;7272;53.668;9.578;2022-08-19T11:56:28;23.20;99.90
14378;DHT22;7272;53.668;9.578;2022-08-19T11:59:30;23.30;99.90
14378;DHT22;7272;53.668;9.578;2022-08-19T12:02:33;23.20;99.90
14378;DHT22;7272;53.668;9.578;2022-08-19T12:05:36;23.20;99.90
14378;DHT22;7272;53.668;9.578;2022-08-19T12:08:40;23.30;99.90
14378;DHT22;7272;53.668;9.578;2022-08-19T12:11:43;23.30;99.90
14378;DHT22;7272;53.668;9.578;2022-08-19T12:14:45;23.20;99.90
14378;DHT22;7272;53.668;9.578;2022-08-19T12:17:47;23.40;99.90
14378;DHT22;7272;53.668;9.578;2022-08-19T12:20:50;23.30;99.90
14378;DHT22;7272;53.668;9.578;2022-08-19T12:23:55;23.30;99.90
14378;DHT22;7272;53.668;9.578;2022-08-19T12:26:58;23.20;99.90
14378;DHT22;7272;53.668;9.578;2022-08-19T12:30:02;23.20;99.90
14378;DHT22;7272;53.668;9.578;2022-08-19T12:33:04;23.20;99.90
14378;DHT22;7272;53.668;9.578;2022-08-19T12:36:08;23.20;99.90
14378;DHT22;7272;53.668;9.578;2022-08-19T12:39:12;23.40;99.90
14378;DHT22;7272;53.668;9.578;2022-08-19T12:42:14;23.60;99.90
14378;DHT22;7272;53.668;9.578;2022-08-19T12:45:18;23.60;99.90
14378;DHT22;7272;53.668;9.578;2022-08-19T12:48:20;23.60;99.90
14378;DHT22;7272;53.668;9.578;2022-08-19T12:51:22;23.50;99.90
14378;DHT22;7272;53.668;9.578;2022-08-19T12:54:27;23.40;99.90
14378;DHT22;7272;53.668;9.578;2022-08-19T12:57:29;23.60;99.90
14378;DHT22;7272;53.668;9.578;2022-08-19T13:00:32;23.70;99.90
14378;DHT22;7272;53.668;9.578;2022-08-19T13:03:34;23.60;99.90
14378;DHT22;7272;53.668;9.578;2022-08-19T13:06:37;23.50;99.90
14378;DHT22;7272;53.668;9.578;2022-08-19T13:09:41;23.50;99.90
14378;DHT22;7272;53.668;9.578;2022-08-19T13:12:43;23.60;99.90
14378;DHT22;7272;53.668;9.578;2022-08-19T13:15:46;23.70;99.90
14378;DHT22;7272;53.668;9.578;2022-08-19T13:18:48;23.80;99.90
14378;DHT22;7272;53.668;9.578;2022-08-19T13:21:52;23.90;99.90
14378;DHT22;7272;53.668;9.578;2022-08-19T13:24:57;24.00;99.90
14378;DHT22;7272;53.668;9.578;2022-08-19T13:27:59;23.90;99.90
14378;DHT22;7272;53.668;9.578;2022-08-19T13:31:01;24.00;99.90
14378;DHT22;7272;53.668;9.578;2022-08-19T13:34:27;24.00;99.90
14378;DHT22;7272;53.668;9.578;2022-08-19T13:37:29;23.90;99.90
14378;DHT22;7272;53.668;9.578;2022-08-19T13:40:45;23.90;99.90
14378;DHT22;7272;53.668;9.578;2022-08-19T13:43:47;23.80;99.90
14378;DHT22;7272;53.668;9.578;2022-08-19T13:46:49;23.80;99.90
14378;DHT22;7272;53.668;9.578;2022-08-19T13:49:53;23.70;99.90
14378;DHT22;7272;53.668;9.578;2022-08-19T13:52:56;23.80;99.90
14378;DHT22;7272;53.668;9.578;2022-08-19T13:55:59;23.80;99.90
14378;DHT22;7272;53.668;9.578;2022-08-19T13:59:02;23.80;99.90
14378;DHT22;7272;53.668;9.578;2022-08-19T14:02:04;23.80;99.90
14378;DHT22;7272;53.668;9.578;2022-08-19T14:05:08;23.90;99.90
14378;DHT22;7272;53.668;9.578;2022-08-19T14:08:10;23.90;99.90
14378;DHT22;7272;53.668;9.578;2022-08-19T14:11:16;23.90;99.90
14378;DHT22;7272;53.668;9.578;2022-08-19T14:14:18;24.00;99.90
14378;DHT22;7272;53.668;9.578;2022-08-19T14:17:20;24.10;99.90
14378;DHT22;7272;53.668;9.578;2022-08-19T14:20:22;24.20;99.90
14378;DHT22;7272;53.668;9.578;2022-08-19T14:23:25;24.30;99.90
14378;DHT22;7272;53.668;9.578;2022-08-19T14:26:28;24.30;99.90
14378;DHT22;7272;53.668;9.578;2022-08-19T14:29:30;24.50;99.90
14378;DHT22;7272;53.668;9.578;2022-08-19T14:32:32;24.70;99.90
14378;DHT22;7272;53.668;9.578;2022-08-19T14:35:35;24.90;99.90
14378;DHT22;7272;53.668;9.578;2022-08-19T14:38:37;25.00;99.90
14378;DHT22;7272;53.668;9.578;2022-08-19T14:41:41;25.20;99.90
14378;DHT22;7272;53.668;9.578;2022-08-19T14:44:43;25.10;99.90
14378;DHT22;7272;53.668;9.578;2022-08-19T14:47:45;25.40;99.90
14378;DHT22;7272;53.668;9.578;2022-08-19T14:50:47;25.60;99.90
14378;DHT22;7272;53.668;9.578;2022-08-19T14:53:50;25.50;99.90
14378;DHT22;7272;53.668;9.578;2022-08-19T14:56:53;25.40;99.90
14378;DHT22;7272;53.668;9.578;2022-08-19T14:59:55;25.40;99.90
14378;DHT22;7272;53.668;9.578;2022-08-19T15:02:57;25.40;99.90
14378;DHT22;7272;53.668;9.578;2022-08-19T15:06:00;25.40;99.90
14378;DHT22;7272;53.668;9.578;2022-08-19T15:09:03;25.40;99.90
14378;DHT22;7272;53.668;9.578;2022-08-19T15:12:07;25.40;99.90
14378;DHT22;7272;53.668;9.578;2022-08-19T15:15:13;25.30;99.90
14378;DHT22;7272;53.668;9.578;2022-08-19T15:18:15;25.30;99.90
14378;DHT22;7272;53.668;9.578;2022-08-19T15:21:18;25.30;99.90
14378;DHT22;7272;53.668;9.578;2022-08-19T15:24:20;25.40;99.90
14378;DHT22;7272;53.668;9.578;2022-08-19T15:27:24;25.60;99.90
14378;DHT22;7272;53.668;9.578;2022-08-19T15:30:27;25.60;99.90
14378;DHT22;7272;53.668;9.578;2022-08-19T15:33:31;25.50;99.90
14378;DHT22;7272;53.668;9.578;2022-08-19T15:36:35;25.40;99.90
14378;DHT22;7272;53.668;9.578;2022-08-19T15:39:37;25.30;99.90
14378;DHT22;7272;53.668;9.578;2022-08-19T15:42:41;25.20;99.90
14378;DHT22;7272;53.668;9.578;2022-08-19T15:45:44;25.20;99.90
14378;DHT22;7272;53.668;9.578;2022-08-19T15:48:46;25.00;99.90
14378;DHT22;7272;53.668;9.578;2022-08-19T15:51:49;24.90;99.90
14378;DHT22;7272;53.668;9.578;2022-08-19T15:54:52;24.80;99.90
14378;DHT22;7272;53.668;9.578;2022-08-19T15:57:55;24.70;99.90
14378;DHT22;7272;53.668;9.578;2022-08-19T16:01:15;24.60;99.90
14378;DHT22;7272;53.668;9.578;2022-08-19T16:04:43;24.60;99.90
14378;DHT22;7272;53.668;9.578;2022-08-19T16:08:03;24.60;99.90
14378;DHT22;7272;53.668;9.578;2022-08-19T16:11:05;24.50;99.90
14378;DHT22;7272;53.668;9.578;2022-08-19T16:14:08;24.50;99.90
14378;DHT22;7272;53.668;9.578;2022-08-19T16:17:10;24.50;99.90
14378;DHT22;7272;53.668;9.578;2022-08-19T16:20:13;24.60;99.90
14378;DHT22;7272;53.668;9.578;2022-08-19T16:23:16;24.50;99.90
14378;DHT22;7272;53.668;9.578;2022-08-19T16:26:19;24.40;99.90
14378;DHT22;7272;53.668;9.578;2022-08-19T16:29:22;24.40;99.90
14378;DHT22;7272;53.668;9.578;2022-08-19T16:32:24;24.40;99.90
14378;DHT22;7272;53.668;9.578;2022-08-19T16:35:26;24.30;99.90
14378;DHT22;7272;53.668;9.578;2022-08-19T16:38:28;24.30;99.90
14378;DHT22;7272;53.668;9.578;2022-08-19T16:41:30;24.30;99.90
14378;DHT22;7272;53.668;9.578;2022-08-19T16:44:34;24.30;99.90
14378;DHT22;7272;53.668;9.578;2022-08-19T16:47:38;24.10;99.90
14378;DHT22;7272;53.668;9.578;2022-08-19T16:50:41;24.10;99.90
14378;DHT22;7272;53.668;9.578;2022-08-19T16:53:46;24.20;99.90
14378;DHT22;7272;53.668;9.578;2022-08-19T16:56:48;24.40;99.90
14378;DHT22;7272;53.668;9.578;2022-08-19T16:59:52;24.40;99.90
14378;DHT22;7272;53.668;9.578;2022-08-19T17:02:53;24.30;99.90
14378;DHT22;7272;53.668;9.578;2022-08-19T17:05:57;24.40;99.90
14378;DHT22;7272;53.668;9.578;2022-08-19T17:09:04;24.50;99.90
14378;DHT22;7272;53.668;9.578;2022-08-19T17:12:06;24.30;99.90
14378;DHT22;7272;53.668;9.578;2022-08-19T17:15:10;24.30;99.90
14378;DHT22;7272;53.668;9.578;2022-08-19T17:18:13;24.20;99.90
14378;DHT22;7272;53.668;9.578;2022-08-19T17:21:15;24.10;99.90
14378;DHT22;7272;53.668;9.578;2022-08-19T17:24:17;24.00;99.90
14378;DHT22;7272;53.668;9.578;2022-08-19T17:27:19;23.90;99.90
14378;DHT22;7272;53.668;9.578;2022-08-19T17:30:23;23.90;99.90
14378;DHT22;7272;53.668;9.578;2022-08-19T17:33:25;24.00;99.90
14378;DHT22;7272;53.668;9.578;2022-08-19T17:36:30;23.90;99.90
14378;DHT22;7272;53.668;9.578;2022-08-19T17:39:33;23.80;99.90
14378;DHT22;7272;53.668;9.578;2022-08-19T17:42:35;23.70;99.90
14378;DHT22;7272;53.668;9.578;2022-08-19T17:45:40;23.60;99.90
14378;DHT22;7272;53.668;9.578;2022-08-19T17:48:43;23.50;99.90
14378;DHT22;7272;53.668;9.578;2022-08-19T17:51:46;23.50;99.90
14378;DHT22;7272;53.668;9.578;2022-08-19T17:54:49;23.40;99.90
14378;DHT22;7272;53.668;9.578;2022-08-19T17:57:51;23.40;99.90
14378;DHT22;7272;53.668;9.578;2022-08-19T18:00:54;23.30;99.90
14378;DHT22;7272;53.668;9.578;2022-08-19T18:03:59;23.30;99.90
14378;DHT22;7272;53.668;9.578;2022-08-19T18:07:03;23.30;99.90
14378;DHT22;7272;53.668;9.578;2022-08-19T18:10:06;23.30;99.90
14378;DHT22;7272;53.668;9.578;2022-08-19T18:13:08;23.20;99.90
14378;DHT22;7272;53.668;9.578;2022-08-19T18:16:14;23.10;99.90
14378;DHT22;7272;53.668;9.578;2022-08-19T18:19:18;23.00;99.90
14378;DHT22;7272;53.668;9.578;2022-08-19T18:22:24;22.90;99.90
14378;DHT22;7272;53.668;9.578;2022-08-19T18:25:27;22.80;99.90
14378;DHT22;7272;53.668;9.578;2022-08-19T18:28:29;22.70;99.90
14378;DHT22;7272;53.668;9.578;2022-08-19T18:31:32;22.70;99.90
14378;DHT22;7272;53.668;9.578;2022-08-19T18:34:35;22.60;99.90
14378;DHT22;7272;53.668;9.578;2022-08-19T18:37:37;22.40;99.90
14378;DHT22;7272;53.668;9.578;2022-08-19T18:40:39;22.20;99.90
14378;DHT22;7272;53.668;9.578;2022-08-19T18:43:59;22.10;99.90
14378;DHT22;7272;53.668;9.578;2022-08-19T18:47:19;21.90;99.90
14378;DHT22;7272;53.668;9.578;2022-08-19T18:50:39;22.00;99.90
14378;DHT22;7272;53.668;9.578;2022-08-19T18:53:45;21.90;99.90
14378;DHT22;7272;53.668;9.578;2022-08-19T18:56:47;21.80;99.90
14378;DHT22;7272;53.668;9.578;2022-08-19T18:59:55;21.60;99.90
14378;DHT22;7272;53.668;9.578;2022-08-19T19:02:58;21.50;99.90
14378;DHT22;7272;53.668;9.578;2022-08-19T19:06:00;21.40;99.90
14378;DHT22;7272;53.668;9.578;2022-08-19T19:09:03;21.50;99.90
14378;DHT22;7272;53.668;9.578;2022-08-19T19:12:12;21.30;99.90
14378;DHT22;7272;53.668;9.578;2022-08-19T19:15:14;21.20;99.90
14378;DHT22;7272;53.668;9.578;2022-08-19T19:18:17;21.10;99.90
14378;DHT22;7272;53.668;9.578;2022-08-19T19:21:20;21.00;99.90
14378;DHT22;7272;53.668;9.578;2022-08-19T19:24:27;21.10;99.90
14378;DHT22;7272;53.668;9.578;2022-08-19T19:27:30;21.20;99.90
14378;DHT22;7272;53.668;9.578;2022-08-19T19:30:32;21.20;99.90
14378;DHT22;7272;53.668;9.578;2022-08-19T19:33:35;21.10;99.90
14378;DHT22;7272;53.668;9.578;2022-08-19T19:36:37;21.00;99.90
14378;DHT22;7272;53.668;9.578;2022-08-19T19:39:40;20.80;99.90